sensor_id;sensor_type;location;lat;lon;timestamp;pressure;altitude;pressure_sealevel;temperature;humidity
69402;BME280;56589;51.992;5.924;2023-07-31T00:02:25;100470.22;;;15.00;83.56
69402;BME280;56589;51.992;5.924;2023-07-31T00:04:51;100462.28;;;15.00;83.93
69402;BME280;56589;51.992;5.924;2023-07-31T00:07:19;100450.72;;;15.01;84.07
69402;BME280;56589;51.992;5.924;2023-07-31T00:09:45;100452.28;;;15.03;83.95
69402;BME280;56589;51.992;5.924;2023-07-31T00:12:11;100451.31;;;15.04;83.65
69402;BME280;56589;51.992;5.924;2023-07-31T00:14:37;100444.91;;;15.07;84.33
69402;BME280;56589;51.992;5.924;2023-07-31T00:17:03;100436.13;;;15.06;83.95
69402;BME280;56589;51.992;5.924;2023-07-31T00:19:30;100429.88;;;15.07;83.80
69402;BME280;56589;51.992;5.924;2023-07-31T00:21:55;100437.78;;;15.07;84.22
69402;BME280;56589;51.992;5.924;2023-07-31T00:24:24;100434.22;;;15.08;84.09
69402;BME280;56589;51.992;5.924;2023-07-31T00:26:50;100433.91;;;15.11;84.05
69402;BME280;56589;51.992;5.924;2023-07-31T00:29:16;100438.09;;;15.14;83.98
69402;BME280;56589;51.992;5.924;2023-07-31T00:31:42;100423.09;;;15.15;84.27
69402;BME280;56589;51.992;5.924;2023-07-31T00:34:08;100417.78;;;15.15;84.37
69402;BME280;56589;51.992;5.924;2023-07-31T00:36:33;100425.44;;;15.18;84.56
69402;BME280;56589;51.992;5.924;2023-07-31T00:38:59;100420.00;;;15.19;84.47
69402;BME280;56589;51.992;5.924;2023-07-31T00:41:28;100413.63;;;15.22;84.65
69402;BME280;56589;51.992;5.924;2023-07-31T00:43:54;100419.59;;;15.24;84.28
69402;BME280;56589;51.992;5.924;2023-07-31T00:46:20;100417.66;;;15.26;84.70
69402;BME280;56589;51.992;5.924;2023-07-31T00:48:46;100417.38;;;15.29;84.32
69402;BME280;56589;51.992;5.924;2023-07-31T00:51:13;100410.97;;;15.31;84.58
69402;BME280;56589;51.992;5.924;2023-07-31T00:53:40;100406.41;;;15.33;84.93
69402;BME280;56589;51.992;5.924;2023-07-31T00:56:06;100402.78;;;15.34;84.60
69402;BME280;56589;51.992;5.924;2023-07-31T00:58:34;100399.00;;;15.37;85.04
69402;BME280;56589;51.992;5.924;2023-07-31T01:01:00;100399.00;;;15.37;85.45
69402;BME280;56589;51.992;5.924;2023-07-31T01:03:26;100398.59;;;15.42;85.43
69402;BME280;56589;51.992;5.924;2023-07-31T01:06:02;100401.81;;;15.45;85.41
69402;BME280;56589;51.992;5.924;2023-07-31T01:08:40;100390.94;;;15.48;85.42
69402;BME280;56589;51.992;5.924;2023-07-31T01:11:15;100396.66;;;15.53;85.75
69402;BME280;56589;51.992;5.924;2023-07-31T01:13:49;100394.53;;;15.57;85.84
69402;BME280;56589;51.992;5.924;2023-07-31T01:16:16;100389.66;;;15.62;86.11
69402;BME280;56589;51.992;5.924;2023-07-31T01:18:41;100386.63;;;15.66;86.04
69402;BME280;56589;51.992;5.924;2023-07-31T01:21:21;100389.00;;;15.70;85.92
69402;BME280;56589;51.992;5.924;2023-07-31T01:24:20;100384.13;;;15.75;86.34
69402;BME280;56589;51.992;5.924;2023-07-31T01:26:55;100385.66;;;15.77;86.11
69402;BME280;56589;51.992;5.924;2023-07-31T01:29:29;100377.41;;;15.80;86.13
69402;BME280;56589;51.992;5.924;2023-07-31T01:32:03;100383.13;;;15.85;85.80
69402;BME280;56589;51.992;5.924;2023-07-31T01:34:32;100377.56;;;15.88;86.01
69402;BME280;56589;51.992;5.924;2023-07-31T01:37:00;100371.28;;;15.89;85.90
69402;BME280;56589;51.992;5.924;2023-07-31T01:39:26;100372.81;;;15.92;86.07
69402;BME280;56589;51.992;5.924;2023-07-31T01:41:54;100380.59;;;15.93;86.22
69402;BME280;56589;51.992;5.924;2023-07-31T01:44:20;100376.00;;;15.96;85.91
69402;BME280;56589;51.992;5.924;2023-07-31T01:46:46;100369.06;;;15.95;85.97
69402;BME280;56589;51.992;5.924;2023-07-31T01:49:12;100370.56;;;15.97;85.71
69402;BME280;56589;51.992;5.924;2023-07-31T01:51:38;100373.06;;;15.99;85.60
69402;BME280;56589;51.992;5.924;2023-07-31T01:54:04;100358.84;;;16.00;85.77
69402;BME280;56589;51.992;5.924;2023-07-31T01:56:30;100363.31;;;15.99;86.02
69402;BME280;56589;51.992;5.924;2023-07-31T01:58:58;100350.06;;;15.99;85.38
69402;BME280;56589;51.992;5.924;2023-07-31T02:01:24;100348.97;;;16.02;85.75
69402;BME280;56589;51.992;5.924;2023-07-31T02:03:50;100354.25;;;16.02;85.51
69402;BME280;56589;51.992;5.924;2023-07-31T02:06:16;100348.13;;;16.01;85.25
69402;BME280;56589;51.992;5.924;2023-07-31T02:08:42;100354.38;;;16.00;85.40
69402;BME280;56589;51.992;5.924;2023-07-31T02:11:07;100355.25;;;16.01;85.29
69402;BME280;56589;51.992;5.924;2023-07-31T02:13:33;100354.38;;;16.00;85.66
69402;BME280;56589;51.992;5.924;2023-07-31T02:16:02;100350.91;;;16.00;85.32
69402;BME280;56589;51.992;5.924;2023-07-31T02:18:28;100345.59;;;16.00;85.58
69402;BME280;56589;51.992;5.924;2023-07-31T02:20:54;100341.28;;;15.99;85.57
69402;BME280;56589;51.992;5.924;2023-07-31T02:23:20;100344.25;;;15.96;85.40
69402;BME280;56589;51.992;5.924;2023-07-31T02:25:46;100338.22;;;15.93;85.60
69402;BME280;56589;51.992;5.924;2023-07-31T02:28:12;100329.59;;;15.91;85.62
69402;BME280;56589;51.992;5.924;2023-07-31T02:30:38;100338.53;;;15.90;85.46
69402;BME280;56589;51.992;5.924;2023-07-31T02:33:07;100344.97;;;15.88;85.54
69402;BME280;56589;51.992;5.924;2023-07-31T02:35:33;100337.13;;;15.86;85.93
69402;BME280;56589;51.992;5.924;2023-07-31T02:37:58;100327.13;;;15.80;86.12
69402;BME280;56589;51.992;5.924;2023-07-31T02:40:24;100327.44;;;15.77;85.94
69402;BME280;56589;51.992;5.924;2023-07-31T02:42:50;100332.00;;;15.75;86.79
69402;BME280;56589;51.992;5.924;2023-07-31T02:45:16;100328.69;;;15.73;86.26
69402;BME280;56589;51.992;5.924;2023-07-31T02:47:42;100319.75;;;15.74;86.22
69402;BME280;56589;51.992;5.924;2023-07-31T02:50:11;100334.97;;;15.72;86.23
69402;BME280;56589;51.992;5.924;2023-07-31T02:52:37;100328.00;;;15.71;86.83
69402;BME280;56589;51.992;5.924;2023-07-31T02:55:03;100330.50;;;15.73;86.84
69402;BME280;56589;51.992;5.924;2023-07-31T02:57:29;100338.28;;;15.74;86.30
69402;BME280;56589;51.992;5.924;2023-07-31T02:59:55;100330.34;;;15.74;86.57
69402;BME280;56589;51.992;5.924;2023-07-31T03:02:21;100333.81;;;15.75;86.30
69402;BME280;56589;51.992;5.924;2023-07-31T03:04:47;100327.56;;;15.76;86.79
69402;BME280;56589;51.992;5.924;2023-07-31T03:07:15;100330.06;;;15.77;86.65
69402;BME280;56589;51.992;5.924;2023-07-31T03:09:41;100326.28;;;15.80;86.71
69402;BME280;56589;51.992;5.924;2023-07-31T03:12:08;100323.66;;;15.80;86.75
69402;BME280;56589;51.992;5.924;2023-07-31T03:14:34;100311.41;;;15.79;86.64
69402;BME280;56589;51.992;5.924;2023-07-31T03:17:00;100322.81;;;15.79;86.72
69402;BME280;56589;51.992;5.924;2023-07-31T03:19:26;100327.13;;;15.80;86.20
69402;BME280;56589;51.992;5.924;2023-07-31T03:21:51;100330.47;;;15.82;86.54
69402;BME280;56589;51.992;5.924;2023-07-31T03:24:20;100325.31;;;15.81;86.23
69402;BME280;56589;51.992;5.924;2023-07-31T03:26:46;100323.22;;;15.84;86.04
69402;BME280;56589;51.992;5.924;2023-07-31T03:29:12;100332.00;;;15.85;86.27
69402;BME280;56589;51.992;5.924;2023-07-31T03:31:37;100317.09;;;15.84;85.96
69402;BME280;56589;51.992;5.924;2023-07-31T03:34:03;100324.34;;;15.82;85.78
69402;BME280;56589;51.992;5.924;2023-07-31T03:36:29;100318.34;;;15.80;86.13
69402;BME280;56589;51.992;5.924;2023-07-31T03:38:55;100314.72;;;15.81;85.42
69402;BME280;56589;51.992;5.924;2023-07-31T03:41:24;100321.97;;;15.79;85.98
69402;BME280;56589;51.992;5.924;2023-07-31T03:43:51;100322.97;;;15.78;85.67
69402;BME280;56589;51.992;5.924;2023-07-31T03:46:17;100315.03;;;15.78;85.27
69402;BME280;56589;51.992;5.924;2023-07-31T03:48:43;100319.63;;;15.76;85.28
69402;BME280;56589;51.992;5.924;2023-07-31T03:51:09;100317.00;;;15.76;85.71
69402;BME280;56589;51.992;5.924;2023-07-31T03:53:34;100310.84;;;15.75;85.31
69402;BME280;56589;51.992;5.924;2023-07-31T03:56:00;100313.47;;;15.75;85.54
69402;BME280;56589;51.992;5.924;2023-07-31T03:58:29;100320.59;;;15.75;85.02
69402;BME280;56589;51.992;5.924;2023-07-31T04:00:55;100318.91;;;15.74;85.36
69402;BME280;56589;51.992;5.924;2023-07-31T04:03:20;100316.13;;;15.75;84.78
69402;BME280;56589;51.992;5.924;2023-07-31T04:05:46;100317.09;;;15.74;85.19
69402;BME280;56589;51.992;5.924;2023-07-31T04:08:12;100316.28;;;15.74;84.64
69402;BME280;56589;51.992;5.924;2023-07-31T04:10:38;100314.63;;;15.73;85.13
69402;BME280;56589;51.992;5.924;2023-07-31T04:13:04;100312.13;;;15.71;84.68
69402;BME280;56589;51.992;5.924;2023-07-31T04:15:32;100298.88;;;15.71;84.92
69402;BME280;56589;51.992;5.924;2023-07-31T04:17:58;100296.25;;;15.71;84.66
69402;BME280;56589;51.992;5.924;2023-07-31T04:20:24;100298.88;;;15.71;84.83
69402;BME280;56589;51.992;5.924;2023-07-31T04:22:50;100293.72;;;15.70;84.42
69402;BME280;56589;51.992;5.924;2023-07-31T04:25:16;100293.72;;;15.70;84.60
69402;BME280;56589;51.992;5.924;2023-07-31T04:27:42;100298.06;;;15.71;84.44
69402;BME280;56589;51.992;5.924;2023-07-31T04:30:08;100291.94;;;15.70;84.14
69402;BME280;56589;51.992;5.924;2023-07-31T04:32:37;100292.59;;;15.72;84.61
69402;BME280;56589;51.992;5.924;2023-07-31T04:35:04;100289.81;;;15.74;84.36
69402;BME280;56589;51.992;5.924;2023-07-31T04:37:30;100286.88;;;15.77;83.93
69402;BME280;56589;51.992;5.924;2023-07-31T04:39:56;100285.06;;;15.77;84.11
69402;BME280;56589;51.992;5.924;2023-07-31T04:42:22;100282.28;;;15.79;84.20
69402;BME280;56589;51.992;5.924;2023-07-31T04:44:48;100274.19;;;15.80;84.04
69402;BME280;56589;51.992;5.924;2023-07-31T04:47:14;100275.84;;;15.81;84.11
69402;BME280;56589;51.992;5.924;2023-07-31T04:49:42;100273.91;;;15.83;83.59
69402;BME280;56589;51.992;5.924;2023-07-31T04:52:08;100275.72;;;15.83;83.81
69402;BME280;56589;51.992;5.924;2023-07-31T04:54:34;100279.06;;;15.85;83.90
69402;BME280;56589;51.992;5.924;2023-07-31T04:57:00;100276.13;;;15.88;83.75
69402;BME280;56589;51.992;5.924;2023-07-31T04:59:26;100278.78;;;15.88;83.67
69402;BME280;56589;51.992;5.924;2023-07-31T05:01:52;100271.78;;;15.87;83.61
69402;BME280;56589;51.992;5.924;2023-07-31T05:04:18;100268.31;;;15.86;83.38
69402;BME280;56589;51.992;5.924;2023-07-31T05:06:46;100269.97;;;15.87;83.50
69402;BME280;56589;51.992;5.924;2023-07-31T05:09:12;100269.03;;;15.88;83.63
69402;BME280;56589;51.992;5.924;2023-07-31T05:11:38;100268.19;;;15.88;83.65
69402;BME280;56589;51.992;5.924;2023-07-31T05:14:03;100265.53;;;15.88;83.48
69402;BME280;56589;51.992;5.924;2023-07-31T05:16:29;100255.78;;;15.88;83.19
69402;BME280;56589;51.992;5.924;2023-07-31T05:18:55;100260.09;;;15.89;83.36
69402;BME280;56589;51.992;5.924;2023-07-31T05:21:21;100258.28;;;15.90;83.46
69402;BME280;56589;51.992;5.924;2023-07-31T05:23:49;100245.03;;;15.90;83.33
69402;BME280;56589;51.992;5.924;2023-07-31T05:26:16;100242.38;;;15.90;83.61
69402;BME280;56589;51.992;5.924;2023-07-31T05:28:42;100245.03;;;15.90;83.22
69402;BME280;56589;51.992;5.924;2023-07-31T05:31:08;100237.94;;;15.90;83.20
69402;BME280;56589;51.992;5.924;2023-07-31T05:33:34;100246.69;;;15.91;83.62
69402;BME280;56589;51.992;5.924;2023-07-31T05:36:00;100244.06;;;15.91;83.51
69402;BME280;56589;51.992;5.924;2023-07-31T05:38:25;100249.34;;;15.91;83.67
69402;BME280;56589;51.992;5.924;2023-07-31T05:40:54;100246.69;;;15.91;83.43
69402;BME280;56589;51.992;5.924;2023-07-31T05:43:20;100245.31;;;15.87;83.56
69402;BME280;56589;51.992;5.924;2023-07-31T05:45:45;100243.97;;;15.83;83.38
69402;BME280;56589;51.992;5.924;2023-07-31T05:48:11;100240.59;;;15.81;83.74
69402;BME280;56589;51.992;5.924;2023-07-31T05:50:37;100243.72;;;15.76;83.63
69402;BME280;56589;51.992;5.924;2023-07-31T05:53:03;100244.97;;;15.72;83.79
69402;BME280;56589;51.992;5.924;2023-07-31T05:55:29;100237.25;;;15.69;84.17
69402;BME280;56589;51.992;5.924;2023-07-31T05:57:57;100238.41;;;15.66;84.33
69402;BME280;56589;51.992;5.924;2023-07-31T06:00:23;100235.06;;;15.64;84.59
69402;BME280;56589;51.992;5.924;2023-07-31T06:02:49;100230.06;;;15.61;84.43
69402;BME280;56589;51.992;5.924;2023-07-31T06:05:15;100232.84;;;15.60;84.94
69402;BME280;56589;51.992;5.924;2023-07-31T06:07:41;100219.91;;;15.57;84.80
69402;BME280;56589;51.992;5.924;2023-07-31T06:10:07;100225.34;;;15.55;85.37
69402;BME280;56589;51.992;5.924;2023-07-31T06:12:34;100216.72;;;15.53;85.57
69402;BME280;56589;51.992;5.924;2023-07-31T06:15:04;100215.88;;;15.53;85.90
69402;BME280;56589;51.992;5.924;2023-07-31T06:17:31;100207.81;;;15.54;86.10
69402;BME280;56589;51.992;5.924;2023-07-31T06:19:57;100203.06;;;15.58;86.51
69402;BME280;56589;51.992;5.924;2023-07-31T06:22:23;100202.91;;;15.59;86.31
69402;BME280;56589;51.992;5.924;2023-07-31T06:24:49;100202.75;;;15.61;86.67
69402;BME280;56589;51.992;5.924;2023-07-31T06:27:15;100207.78;;;15.64;86.31
69402;BME280;56589;51.992;5.924;2023-07-31T06:29:41;100203.16;;;15.66;86.85
69402;BME280;56589;51.992;5.924;2023-07-31T06:32:10;100193.25;;;15.68;86.95
69402;BME280;56589;51.992;5.924;2023-07-31T06:34:36;100195.50;;;15.73;87.01
69402;BME280;56589;51.992;5.924;2023-07-31T06:37:02;100198.84;;;15.75;87.15
69402;BME280;56589;51.992;5.924;2023-07-31T06:39:28;100190.63;;;15.78;87.04
69402;BME280;56589;51.992;5.924;2023-07-31T06:41:54;100191.00;;;15.83;87.22
69402;BME280;56589;51.992;5.924;2023-07-31T06:44:19;100185.56;;;15.84;87.30
69402;BME280;56589;51.992;5.924;2023-07-31T06:46:45;100180.13;;;15.86;86.95
69402;BME280;56589;51.992;5.924;2023-07-31T06:49:14;100174.38;;;15.90;87.28
69402;BME280;56589;51.992;5.924;2023-07-31T06:51:39;100178.69;;;15.91;87.27
69402;BME280;56589;51.992;5.924;2023-07-31T06:54:05;100183.72;;;15.95;87.46
69402;BME280;56589;51.992;5.924;2023-07-31T06:56:31;100174.78;;;15.96;87.07
69402;BME280;56589;51.992;5.924;2023-07-31T06:58:57;100173.47;;;16.00;87.21
69402;BME280;56589;51.992;5.924;2023-07-31T07:01:23;100168.06;;;16.01;87.35
69402;BME280;56589;51.992;5.924;2023-07-31T07:03:49;100172.88;;;16.06;87.37
69402;BME280;56589;51.992;5.924;2023-07-31T07:06:17;100171.06;;;16.06;87.06
69402;BME280;56589;51.992;5.924;2023-07-31T07:08:43;100168.44;;;16.06;87.30
69402;BME280;56589;51.992;5.924;2023-07-31T07:11:09;100176.09;;;16.09;87.25
69402;BME280;56589;51.992;5.924;2023-07-31T07:13:35;100167.16;;;16.10;87.21
69402;BME280;56589;51.992;5.924;2023-07-31T07:16:00;100162.53;;;16.12;87.55
69402;BME280;56589;51.992;5.924;2023-07-31T07:18:26;100163.25;;;16.14;87.71
69402;BME280;56589;51.992;5.924;2023-07-31T07:20:53;100155.81;;;16.18;88.01
69402;BME280;56589;51.992;5.924;2023-07-31T07:23:22;100151.88;;;16.22;87.71
69402;BME280;56589;51.992;5.924;2023-07-31T07:25:48;100150.31;;;16.29;87.89
69402;BME280;56589;51.992;5.924;2023-07-31T07:28:14;100148.88;;;16.35;87.77
69402;BME280;56589;51.992;5.924;2023-07-31T07:30:41;100146.44;;;16.41;87.98
69402;BME280;56589;51.992;5.924;2023-07-31T07:33:07;100142.66;;;16.44;87.95
69402;BME280;56589;51.992;5.924;2023-07-31T07:35:33;100149.91;;;16.42;87.70
69402;BME280;56589;51.992;5.924;2023-07-31T07:37:59;100144.50;;;16.43;87.92
69402;BME280;56589;51.992;5.924;2023-07-31T07:40:27;100141.97;;;16.42;87.54
69402;BME280;56589;51.992;5.924;2023-07-31T07:42:53;100146.59;;;16.40;87.42
69402;BME280;56589;51.992;5.924;2023-07-31T07:45:19;100144.09;;;16.38;87.65
69402;BME280;56589;51.992;5.924;2023-07-31T07:47:45;100152.72;;;16.40;87.97
69402;BME280;56589;51.992;5.924;2023-07-31T07:50:11;100142.13;;;16.40;87.92
69402;BME280;56589;51.992;5.924;2023-07-31T07:52:37;100138.66;;;16.40;87.54
69402;BME280;56589;51.992;5.924;2023-07-31T07:55:03;100140.31;;;16.41;87.49
69402;BME280;56589;51.992;5.924;2023-07-31T07:57:33;100141.97;;;16.42;87.90
69402;BME280;56589;51.992;5.924;2023-07-31T07:59:58;100142.97;;;16.41;87.81
69402;BME280;56589;51.992;5.924;2023-07-31T08:02:24;100136.84;;;16.40;87.91
69402;BME280;56589;51.992;5.924;2023-07-31T08:04:50;100144.63;;;16.42;87.66
69402;BME280;56589;51.992;5.924;2023-07-31T08:07:16;100132.06;;;16.44;88.10
69402;BME280;56589;51.992;5.924;2023-07-31T08:09:42;100130.09;;;16.46;87.77
69402;BME280;56589;51.992;5.924;2023-07-31T08:12:08;100131.75;;;16.47;88.01
69402;BME280;56589;51.992;5.924;2023-07-31T08:14:37;100125.19;;;16.51;88.31
69402;BME280;56589;51.992;5.924;2023-07-31T08:17:03;100120.38;;;16.55;88.17
69402;BME280;56589;51.992;5.924;2023-07-31T08:19:29;100124.72;;;16.56;87.88
69402;BME280;56589;51.992;5.924;2023-07-31T08:21:55;100126.50;;;16.55;87.75
69402;BME280;56589;51.992;5.924;2023-07-31T08:24:21;100129.88;;;16.57;88.26
69402;BME280;56589;51.992;5.924;2023-07-31T08:26:47;100122.91;;;16.56;88.28
69402;BME280;56589;51.992;5.924;2023-07-31T08:29:13;100127.88;;;16.59;88.47
69402;BME280;56589;51.992;5.924;2023-07-31T08:31:41;100117.13;;;16.61;88.10
69402;BME280;56589;51.992;5.924;2023-07-31T08:34:07;100117.00;;;16.62;88.25
69402;BME280;56589;51.992;5.924;2023-07-31T08:36:33;100116.00;;;16.63;88.47
69402;BME280;56589;51.992;5.924;2023-07-31T08:38:59;100116.66;;;16.65;88.55
69402;BME280;56589;51.992;5.924;2023-07-31T08:41:25;100109.38;;;16.67;88.27
69402;BME280;56589;51.992;5.924;2023-07-31T08:43:51;100123.03;;;16.72;88.32
69402;BME280;56589;51.992;5.924;2023-07-31T08:46:18;100117.28;;;16.77;88.61
69402;BME280;56589;51.992;5.924;2023-07-31T08:48:50;100107.06;;;16.82;88.60
69402;BME280;56589;51.992;5.924;2023-07-31T08:51:17;100111.28;;;16.93;88.86
69402;BME280;56589;51.992;5.924;2023-07-31T08:53:43;100113.31;;;16.99;88.44
69402;BME280;56589;51.992;5.924;2023-07-31T08:56:09;100118.28;;;17.02;88.21
69402;BME280;56589;51.992;5.924;2023-07-31T08:58:37;100109.19;;;17.05;88.34
69402;BME280;56589;51.992;5.924;2023-07-31T09:01:04;100115.16;;;17.07;88.21
69402;BME280;56589;51.992;5.924;2023-07-31T09:03:34;100112.34;;;17.08;87.63
69402;BME280;56589;51.992;5.924;2023-07-31T09:06:04;100113.19;;;17.09;87.66
69402;BME280;56589;51.992;5.924;2023-07-31T09:08:31;100111.38;;;17.09;87.65
69402;BME280;56589;51.992;5.924;2023-07-31T09:10:59;100117.69;;;17.16;87.92
69402;BME280;56589;51.992;5.924;2023-07-31T09:13:27;100114.59;;;17.21;88.15
69402;BME280;56589;51.992;5.924;2023-07-31T09:15:53;100105.63;;;17.22;87.29
69402;BME280;56589;51.992;5.924;2023-07-31T09:18:19;100113.91;;;17.19;86.98
69402;BME280;56589;51.992;5.924;2023-07-31T09:20:45;100114.72;;;17.11;87.17
69402;BME280;56589;51.992;5.924;2023-07-31T09:23:14;100105.38;;;17.07;87.41
69402;BME280;56589;51.992;5.924;2023-07-31T09:25:43;100107.50;;;17.04;87.28
69402;BME280;56589;51.992;5.924;2023-07-31T09:28:10;100106.84;;;17.02;87.68
69402;BME280;56589;51.992;5.924;2023-07-31T09:30:45;100104.19;;;17.02;87.69
69402;BME280;56589;51.992;5.924;2023-07-31T09:33:13;100103.03;;;17.04;87.92
69402;BME280;56589;51.992;5.924;2023-07-31T09:35:39;100103.19;;;17.03;87.62
69402;BME280;56589;51.992;5.924;2023-07-31T09:38:07;100087.00;;;17.06;88.17
69402;BME280;56589;51.992;5.924;2023-07-31T09:40:40;100095.63;;;17.08;87.65
69402;BME280;56589;51.992;5.924;2023-07-31T09:43:08;100105.22;;;17.09;87.85
69402;BME280;56589;51.992;5.924;2023-07-31T09:45:37;100095.78;;;17.06;87.87
69402;BME280;56589;51.992;5.924;2023-07-31T09:48:07;100086.81;;;17.07;87.89
69402;BME280;56589;51.992;5.924;2023-07-31T09:50:36;100092.97;;;17.08;87.66
69402;BME280;56589;51.992;5.924;2023-07-31T09:53:03;100085.84;;;17.08;87.68
69402;BME280;56589;51.992;5.924;2023-07-31T09:55:30;100090.66;;;17.13;87.57
69402;BME280;56589;51.992;5.924;2023-07-31T09:57:59;100075.41;;;17.15;87.66
69402;BME280;56589;51.992;5.924;2023-07-31T10:00:30;100085.88;;;17.16;87.55
69402;BME280;56589;51.992;5.924;2023-07-31T10:02:58;100081.09;;;17.20;87.56
69402;BME280;56589;51.992;5.924;2023-07-31T10:05:31;100080.91;;;17.21;87.53
69402;BME280;56589;51.992;5.924;2023-07-31T10:08:00;100091.41;;;17.23;87.44
69402;BME280;56589;51.992;5.924;2023-07-31T10:10:27;100077.97;;;17.24;87.87
69402;BME280;56589;51.992;5.924;2023-07-31T10:12:53;100082.28;;;17.25;87.67
69402;BME280;56589;51.992;5.924;2023-07-31T10:15:23;100083.94;;;17.26;87.26
69402;BME280;56589;51.992;5.924;2023-07-31T10:17:51;100081.13;;;17.28;87.36
69402;BME280;56589;51.992;5.924;2023-07-31T10:20:20;100082.78;;;17.29;87.43
69402;BME280;56589;51.992;5.924;2023-07-31T10:22:47;100079.00;;;17.32;87.28
69402;BME280;56589;51.992;5.924;2023-07-31T10:25:15;100071.38;;;17.37;87.37
69402;BME280;56589;51.992;5.924;2023-07-31T10:27:41;100083.69;;;17.46;87.82
69402;BME280;56589;51.992;5.924;2023-07-31T10:30:11;100086.06;;;17.57;87.31
69402;BME280;56589;51.992;5.924;2023-07-31T10:32:44;100072.78;;;17.65;87.08
69402;BME280;56589;51.992;5.924;2023-07-31T10:35:12;100089.94;;;17.71;86.95
69402;BME280;56589;51.992;5.924;2023-07-31T10:37:39;100081.66;;;17.74;86.77
69402;BME280;56589;51.992;5.924;2023-07-31T10:40:10;100083.31;;;17.75;86.64
69402;BME280;56589;51.992;5.924;2023-07-31T10:42:38;100080.50;;;17.76;86.60
69402;BME280;56589;51.992;5.924;2023-07-31T10:45:11;100075.88;;;17.78;86.64
69402;BME280;56589;51.992;5.924;2023-07-31T10:47:38;100077.69;;;17.78;86.04
69402;BME280;56589;51.992;5.924;2023-07-31T10:50:21;100084.81;;;17.77;86.00
69402;BME280;56589;51.992;5.924;2023-07-31T10:52:49;100077.53;;;17.79;86.29
69402;BME280;56589;51.992;5.924;2023-07-31T10:55:24;100078.19;;;17.82;86.12
69402;BME280;56589;51.992;5.924;2023-07-31T10:57:51;100068.22;;;17.84;86.33
69402;BME280;56589;51.992;5.924;2023-07-31T11:00:19;100064.78;;;17.91;86.21
69402;BME280;56589;51.992;5.924;2023-07-31T11:02:56;100067.44;;;17.99;86.10
69402;BME280;56589;51.992;5.924;2023-07-31T11:05:43;100076.25;;;18.08;86.22
69402;BME280;56589;51.992;5.924;2023-07-31T11:08:12;100068.28;;;18.08;85.71
69402;BME280;56589;51.992;5.924;2023-07-31T11:10:39;100063.13;;;18.06;85.57
69402;BME280;56589;51.992;5.924;2023-07-31T11:13:06;100064.31;;;18.04;84.81
69402;BME280;56589;51.992;5.924;2023-07-31T11:15:31;100066.28;;;18.02;85.10
69402;BME280;56589;51.992;5.924;2023-07-31T11:17:57;100058.47;;;18.09;85.37
69402;BME280;56589;51.992;5.924;2023-07-31T11:20:25;100071.28;;;18.13;85.56
69402;BME280;56589;51.992;5.924;2023-07-31T11:22:53;100075.28;;;18.17;85.62
69402;BME280;56589;51.992;5.924;2023-07-31T11:25:19;100086.25;;;18.22;85.72
69402;BME280;56589;51.992;5.924;2023-07-31T11:27:45;100071.97;;;18.23;85.16
69402;BME280;56589;51.992;5.924;2023-07-31T11:30:11;100074.09;;;18.20;85.47
69402;BME280;56589;51.992;5.924;2023-07-31T11:32:37;100068.31;;;18.16;85.31
69402;BME280;56589;51.992;5.924;2023-07-31T11:35:04;100066.97;;;18.12;84.96
69402;BME280;56589;51.992;5.924;2023-07-31T11:37:39;100059.66;;;18.06;85.49
69402;BME280;56589;51.992;5.924;2023-07-31T11:40:09;100063.31;;;18.05;85.41
69402;BME280;56589;51.992;5.924;2023-07-31T11:42:36;100060.47;;;18.06;85.78
69402;BME280;56589;51.992;5.924;2023-07-31T11:45:03;100057.00;;;18.06;85.51
69402;BME280;56589;51.992;5.924;2023-07-31T11:47:29;100063.97;;;18.07;85.58
69402;BME280;56589;51.992;5.924;2023-07-31T11:49:57;100064.66;;;18.09;85.36
69402;BME280;56589;51.992;5.924;2023-07-31T11:52:23;100066.13;;;18.12;85.51
69402;BME280;56589;51.992;5.924;2023-07-31T11:54:50;100065.66;;;18.16;85.27
69402;BME280;56589;51.992;5.924;2023-07-31T11:57:20;100070.63;;;18.19;85.12
69402;BME280;56589;51.992;5.924;2023-07-31T11:59:46;100060.00;;;18.19;85.08
69402;BME280;56589;51.992;5.924;2023-07-31T12:02:12;100061.00;;;18.18;85.47
69402;BME280;56589;51.992;5.924;2023-07-31T12:04:38;100064.47;;;18.19;85.50
69402;BME280;56589;51.992;5.924;2023-07-31T12:07:05;100069.63;;;18.20;85.48
69402;BME280;56589;51.992;5.924;2023-07-31T12:09:31;100061.63;;;18.20;85.47
69402;BME280;56589;51.992;5.924;2023-07-31T12:11:57;100055.34;;;18.21;85.00
69402;BME280;56589;51.992;5.924;2023-07-31T12:14:27;100048.22;;;18.22;85.47
69402;BME280;56589;51.992;5.924;2023-07-31T12:16:54;100051.34;;;18.25;85.35
69402;BME280;56589;51.992;5.924;2023-07-31T12:19:21;100056.34;;;18.28;84.72
69402;BME280;56589;51.992;5.924;2023-07-31T12:21:47;100054.69;;;18.27;84.54
69402;BME280;56589;51.992;5.924;2023-07-31T12:24:14;100057.34;;;18.27;84.75
69402;BME280;56589;51.992;5.924;2023-07-31T12:26:40;100060.00;;;18.27;84.69
69402;BME280;56589;51.992;5.924;2023-07-31T12:29:07;100054.69;;;18.27;84.73
69402;BME280;56589;51.992;5.924;2023-07-31T12:31:37;100058.19;;;18.28;84.71
69402;BME280;56589;51.992;5.924;2023-07-31T12:34:15;100057.34;;;18.27;84.64
69402;BME280;56589;51.992;5.924;2023-07-31T12:36:44;100051.19;;;18.27;84.66
69402;BME280;56589;51.992;5.924;2023-07-31T12:39:10;100046.56;;;18.29;84.84
69402;BME280;56589;51.992;5.924;2023-07-31T12:41:38;100042.88;;;18.30;84.54
69402;BME280;56589;51.992;5.924;2023-07-31T12:44:04;100040.41;;;18.28;84.62
69402;BME280;56589;51.992;5.924;2023-07-31T12:46:32;100037.06;;;18.26;85.03
69402;BME280;56589;51.992;5.924;2023-07-31T12:49:02;100038.41;;;18.22;85.12
69402;BME280;56589;51.992;5.924;2023-07-31T12:51:27;100042.06;;;18.21;84.99